sensor_id;sensor_type;location;lat;lon;timestamp;P1;durP1;ratioP1;P2;durP2;ratioP2
15331;SDS011;7766;51.534;6.722;2022-09-27T00:00:07;5.27;;;1.43;;
15331;SDS011;7766;51.534;6.722;2022-09-27T00:01:09;4.37;;;1.20;;
15331;SDS011;7766;51.534;6.722;2022-09-27T00:02:12;3.73;;;1.23;;
15331;SDS011;7766;51.534;6.722;2022-09-27T00:03:14;1.73;;;1.00;;
15331;SDS011;7766;51.534;6.722;2022-09-27T00:04:14;1.77;;;1.10;;
15331;SDS011;7766;51.534;6.722;2022-09-27T00:05:16;3.53;;;0.90;;
15331;SDS011;7766;51.534;6.722;2022-09-27T00:06:25;3.93;;;1.10;;
15331;SDS011;7766;51.534;6.722;2022-09-27T00:07:27;4.43;;;1.20;;
15331;SDS011;7766;51.534;6.722;2022-09-27T00:08:28;3.30;;;1.13;;
15331;SDS011;7766;51.534;6.722;2022-09-27T00:09:30;1.63;;;0.83;;
15331;SDS011;7766;51.534;6.722;2022-09-27T00:10:31;2.80;;;0.90;;
15331;SDS011;7766;51.534;6.722;2022-09-27T00:11:32;3.77;;;1.13;;
15331;SDS011;7766;51.534;6.722;2022-09-27T00:12:39;3.73;;;1.33;;
15331;SDS011;7766;51.534;6.722;2022-09-27T00:13:40;5.63;;;1.10;;
15331;SDS011;7766;51.534;6.722;2022-09-27T00:14:41;6.97;;;1.23;;
15331;SDS011;7766;51.534;6.722;2022-09-27T00:15:42;4.40;;;1.20;;
15331;SDS011;7766;51.534;6.722;2022-09-27T00:16:43;5.27;;;1.37;;
15331;SDS011;7766;51.534;6.722;2022-09-27T00:17:44;5.90;;;1.10;;
15331;SDS011;7766;51.534;6.722;2022-09-27T00:18:46;2.63;;;1.20;;
15331;SDS011;7766;51.534;6.722;2022-09-27T00:19:47;3.57;;;1.20;;
15331;SDS011;7766;51.534;6.722;2022-09-27T00:20:48;4.23;;;1.07;;
15331;SDS011;7766;51.534;6.722;2022-09-27T00:21:49;3.63;;;0.80;;
15331;SDS011;7766;51.534;6.722;2022-09-27T00:22:50;4.40;;;1.20;;
15331;SDS011;7766;51.534;6.722;2022-09-27T00:23:51;7.07;;;1.47;;
15331;SDS011;7766;51.534;6.722;2022-09-27T00:24:51;4.23;;;1.50;;
15331;SDS011;7766;51.534;6.722;2022-09-27T00:25:53;5.67;;;1.60;;
15331;SDS011;7766;51.534;6.722;2022-09-27T00:26:58;3.03;;;1.00;;
15331;SDS011;7766;51.534;6.722;2022-09-27T00:27:59;4.60;;;1.43;;
15331;SDS011;7766;51.534;6.722;2022-09-27T00:29:00;6.27;;;1.43;;
15331;SDS011;7766;51.534;6.722;2022-09-27T00:30:01;4.47;;;1.20;;
15331;SDS011;7766;51.534;6.722;2022-09-27T00:31:02;4.80;;;1.33;;
15331;SDS011;7766;51.534;6.722;2022-09-27T00:32:03;7.80;;;1.50;;
15331;SDS011;7766;51.534;6.722;2022-09-27T00:33:04;4.50;;;1.70;;
15331;SDS011;7766;51.534;6.722;2022-09-27T00:34:06;4.77;;;1.83;;
15331;SDS011;7766;51.534;6.722;2022-09-27T00:35:10;4.60;;;1.43;;
15331;SDS011;7766;51.534;6.722;2022-09-27T00:36:11;5.57;;;1.57;;
15331;SDS011;7766;51.534;6.722;2022-09-27T00:37:13;5.63;;;1.70;;
15331;SDS011;7766;51.534;6.722;2022-09-27T00:38:14;4.73;;;1.87;;
15331;SDS011;7766;51.534;6.722;2022-09-27T00:39:15;4.97;;;1.50;;
15331;SDS011;7766;51.534;6.722;2022-09-27T00:40:17;7.90;;;2.00;;
15331;SDS011;7766;51.534;6.722;2022-09-27T00:41:24;4.17;;;1.90;;
15331;SDS011;7766;51.534;6.722;2022-09-27T00:42:27;4.80;;;1.70;;
15331;SDS011;7766;51.534;6.722;2022-09-27T00:43:42;6.53;;;2.23;;
15331;SDS011;7766;51.534;6.722;2022-09-27T00:44:54;3.17;;;2.00;;
15331;SDS011;7766;51.534;6.722;2022-09-27T00:46:01;6.27;;;1.97;;
15331;SDS011;7766;51.534;6.722;2022-09-27T00:48:12;4.80;;;2.30;;
15331;SDS011;7766;51.534;6.722;2022-09-27T00:50:31;5.80;;;2.33;;
15331;SDS011;7766;51.534;6.722;2022-09-27T00:51:37;3.97;;;2.47;;
15331;SDS011;7766;51.534;6.722;2022-09-27T00:52:46;4.93;;;2.43;;
15331;SDS011;7766;51.534;6.722;2022-09-27T00:53:54;5.30;;;2.50;;
15331;SDS011;7766;51.534;6.722;2022-09-27T00:54:58;6.23;;;2.60;;
15331;SDS011;7766;51.534;6.722;2022-09-27T00:56:07;4.90;;;2.40;;
15331;SDS011;7766;51.534;6.722;2022-09-27T00:57:11;5.80;;;2.67;;
15331;SDS011;7766;51.534;6.722;2022-09-27T00:58:12;5.57;;;3.33;;
15331;SDS011;7766;51.534;6.722;2022-09-27T00:59:19;6.47;;;3.27;;
15331;SDS011;7766;51.534;6.722;2022-09-27T01:00:25;8.50;;;2.80;;
15331;SDS011;7766;51.534;6.722;2022-09-27T01:01:26;6.70;;;3.07;;
15331;SDS011;7766;51.534;6.722;2022-09-27T01:02:29;7.53;;;3.10;;
15331;SDS011;7766;51.534;6.722;2022-09-27T01:04:57;6.33;;;3.20;;
15331;SDS011;7766;51.534;6.722;2022-09-27T01:06:00;7.90;;;2.87;;
15331;SDS011;7766;51.534;6.722;2022-09-27T01:07:01;5.70;;;2.60;;
15331;SDS011;7766;51.534;6.722;2022-09-27T01:08:02;4.87;;;3.10;;
15331;SDS011;7766;51.534;6.722;2022-09-27T01:09:05;6.17;;;3.30;;
15331;SDS011;7766;51.534;6.722;2022-09-27T01:10:07;6.77;;;3.53;;
15331;SDS011;7766;51.534;6.722;2022-09-27T01:13:34;4.60;;;2.83;;
15331;SDS011;7766;51.534;6.722;2022-09-27T01:16:24;5.10;;;3.00;;
15331;SDS011;7766;51.534;6.722;2022-09-27T01:19:31;6.13;;;2.80;;
15331;SDS011;7766;51.534;6.722;2022-09-27T01:21:09;11.70;;;7.30;;
15331;SDS011;7766;51.534;6.722;2022-09-27T01:24:28;10.23;;;4.37;;
15331;SDS011;7766;51.534;6.722;2022-09-27T01:26:59;10.70;;;6.03;;
15331;SDS011;7766;51.534;6.722;2022-09-27T01:31:03;4.63;;;2.67;;
15331;SDS011;7766;51.534;6.722;2022-09-27T01:32:22;6.30;;;2.80;;
15331;SDS011;7766;51.534;6.722;2022-09-27T01:34:46;4.80;;;2.60;;
15331;SDS011;7766;51.534;6.722;2022-09-27T01:38:39;6.23;;;2.50;;
15331;SDS011;7766;51.534;6.722;2022-09-27T01:39:50;6.73;;;3.00;;
15331;SDS011;7766;51.534;6.722;2022-09-27T01:41:26;12.57;;;5.40;;
15331;SDS011;7766;51.534;6.722;2022-09-27T01:42:36;7.00;;;2.17;;
15331;SDS011;7766;51.534;6.722;2022-09-27T01:43:53;15.80;;;8.87;;
15331;SDS011;7766;51.534;6.722;2022-09-27T01:45:24;11.27;;;2.63;;
15331;SDS011;7766;51.534;6.722;2022-09-27T01:46:37;4.73;;;2.17;;
15331;SDS011;7766;51.534;6.722;2022-09-27T01:47:53;4.40;;;2.57;;
15331;SDS011;7766;51.534;6.722;2022-09-27T01:48:57;4.50;;;2.30;;
15331;SDS011;7766;51.534;6.722;2022-09-27T01:50:10;3.47;;;2.20;;
15331;SDS011;7766;51.534;6.722;2022-09-27T01:51:36;7.37;;;2.07;;
15331;SDS011;7766;51.534;6.722;2022-09-27T01:52:54;5.23;;;2.30;;
15331;SDS011;7766;51.534;6.722;2022-09-27T01:54:05;5.80;;;2.47;;
15331;SDS011;7766;51.534;6.722;2022-09-27T01:55:10;3.57;;;2.07;;
15331;SDS011;7766;51.534;6.722;2022-09-27T01:56:15;3.93;;;2.37;;
15331;SDS011;7766;51.534;6.722;2022-09-27T01:57:22;4.13;;;2.00;;
15331;SDS011;7766;51.534;6.722;2022-09-27T01:58:32;8.00;;;2.10;;
15331;SDS011;7766;51.534;6.722;2022-09-27T01:59:48;7.97;;;2.30;;
15331;SDS011;7766;51.534;6.722;2022-09-27T02:00:53;5.93;;;1.77;;
15331;SDS011;7766;51.534;6.722;2022-09-27T02:01:57;8.03;;;2.30;;
15331;SDS011;7766;51.534;6.722;2022-09-27T02:03:04;5.63;;;2.30;;
15331;SDS011;7766;51.534;6.722;2022-09-27T02:04:12;4.47;;;2.20;;
15331;SDS011;7766;51.534;6.722;2022-09-27T02:05:19;2.90;;;1.80;;
15331;SDS011;7766;51.534;6.722;2022-09-27T02:06:26;8.43;;;2.03;;
15331;SDS011;7766;51.534;6.722;2022-09-27T02:08:00;4.43;;;2.33;;
15331;SDS011;7766;51.534;6.722;2022-09-27T02:09:08;3.93;;;1.90;;
15331;SDS011;7766;51.534;6.722;2022-09-27T02:10:23;2.77;;;1.73;;
15331;SDS011;7766;51.534;6.722;2022-09-27T02:11:30;7.53;;;2.30;;
15331;SDS011;7766;51.534;6.722;2022-09-27T02:12:34;3.97;;;2.00;;
15331;SDS011;7766;51.534;6.722;2022-09-27T02:15:08;4.67;;;1.97;;
15331;SDS011;7766;51.534;6.722;2022-09-27T02:16:32;5.87;;;1.90;;
15331;SDS011;7766;51.534;6.722;2022-09-27T02:18:04;4.33;;;1.87;;
15331;SDS011;7766;51.534;6.722;2022-09-27T02:20:36;5.17;;;1.97;;
15331;SDS011;7766;51.534;6.722;2022-09-27T02:23:35;3.00;;;1.77;;
15331;SDS011;7766;51.534;6.722;2022-09-27T02:24:44;3.47;;;1.53;;
15331;SDS011;7766;51.534;6.722;2022-09-27T02:25:57;5.33;;;1.90;;
15331;SDS011;7766;51.534;6.722;2022-09-27T02:27:02;7.57;;;1.90;;
15331;SDS011;7766;51.534;6.722;2022-09-27T02:29:42;4.13;;;1.73;;
15331;SDS011;7766;51.534;6.722;2022-09-27T02:30:49;4.30;;;2.00;;
15331;SDS011;7766;51.534;6.722;2022-09-27T02:31:51;5.73;;;2.13;;
15331;SDS011;7766;51.534;6.722;2022-09-27T02:32:52;4.97;;;2.20;;
15331;SDS011;7766;51.534;6.722;2022-09-27T02:35:23;5.20;;;1.80;;
15331;SDS011;7766;51.534;6.722;2022-09-27T02:36:27;5.47;;;2.30;;
15331;SDS011;7766;51.534;6.722;2022-09-27T02:37:29;5.97;;;1.90;;
15331;SDS011;7766;51.534;6.722;2022-09-27T02:38:30;4.73;;;2.17;;
15331;SDS011;7766;51.534;6.722;2022-09-27T02:39:32;5.70;;;2.47;;
15331;SDS011;7766;51.534;6.722;2022-09-27T02:40:34;9.70;;;2.50;;
15331;SDS011;7766;51.534;6.722;2022-09-27T02:41:42;6.73;;;2.73;;
15331;SDS011;7766;51.534;6.722;2022-09-27T02:42:43;8.97;;;2.10;;
15331;SDS011;7766;51.534;6.722;2022-09-27T02:43:53;6.23;;;2.30;;
15331;SDS011;7766;51.534;6.722;2022-09-27T02:44:58;5.63;;;2.63;;
15331;SDS011;7766;51.534;6.722;2022-09-27T02:47:26;7.10;;;2.33;;
15331;SDS011;7766;51.534;6.722;2022-09-27T02:58:36;5.77;;;2.20;;
15331;SDS011;7766;51.534;6.722;2022-09-27T03:00:03;4.43;;;1.80;;
15331;SDS011;7766;51.534;6.722;2022-09-27T03:02:54;9.50;;;2.23;;
15331;SDS011;7766;51.534;6.722;2022-09-27T03:05:12;4.77;;;2.30;;
15331;SDS011;7766;51.534;6.722;2022-09-27T03:06:24;3.27;;;2.20;;
15331;SDS011;7766;51.534;6.722;2022-09-27T03:07:26;4.63;;;2.20;;
15331;SDS011;7766;51.534;6.722;2022-09-27T03:08:28;5.03;;;2.30;;
15331;SDS011;7766;51.534;6.722;2022-09-27T03:09:39;5.23;;;2.07;;
15331;SDS011;7766;51.534;6.722;2022-09-27T03:10:43;5.97;;;2.33;;
15331;SDS011;7766;51.534;6.722;2022-09-27T03:11:44;5.00;;;2.27;;
15331;SDS011;7766;51.534;6.722;2022-09-27T03:12:45;5.13;;;2.70;;
15331;SDS011;7766;51.534;6.722;2022-09-27T03:13:47;4.43;;;2.77;;
15331;SDS011;7766;51.534;6.722;2022-09-27T03:14:48;5.93;;;2.90;;
15331;SDS011;7766;51.534;6.722;2022-09-27T03:15:48;6.80;;;2.50;;
15331;SDS011;7766;51.534;6.722;2022-09-27T03:16:49;6.87;;;3.00;;
15331;SDS011;7766;51.534;6.722;2022-09-27T03:17:50;3.97;;;2.40;;
15331;SDS011;7766;51.534;6.722;2022-09-27T03:18:51;6.20;;;2.77;;
15331;SDS011;7766;51.534;6.722;2022-09-27T03:19:52;5.53;;;3.00;;
15331;SDS011;7766;51.534;6.722;2022-09-27T03:20:53;6.77;;;3.23;;
15331;SDS011;7766;51.534;6.722;2022-09-27T03:21:54;11.53;;;3.63;;
15331;SDS011;7766;51.534;6.722;2022-09-27T03:22:55;7.07;;;3.43;;
15331;SDS011;7766;51.534;6.722;2022-09-27T03:23:56;7.63;;;2.97;;
15331;SDS011;7766;51.534;6.722;2022-09-27T03:24:57;6.53;;;3.30;;
15331;SDS011;7766;51.534;6.722;2022-09-27T03:25:58;5.13;;;3.43;;
15331;SDS011;7766;51.534;6.722;2022-09-27T03:26:59;7.77;;;3.90;;
15331;SDS011;7766;51.534;6.722;2022-09-27T03:28:01;11.37;;;3.73;;
15331;SDS011;7766;51.534;6.722;2022-09-27T03:29:02;6.27;;;4.03;;
15331;SDS011;7766;51.534;6.722;2022-09-27T03:30:03;6.80;;;3.37;;
15331;SDS011;7766;51.534;6.722;2022-09-27T03:31:05;8.53;;;3.30;;
15331;SDS011;7766;51.534;6.722;2022-09-27T03:32:06;6.07;;;3.53;;
15331;SDS011;7766;51.534;6.722;2022-09-27T03:33:07;4.60;;;3.40;;
15331;SDS011;7766;51.534;6.722;2022-09-27T03:34:08;7.93;;;3.20;;
15331;SDS011;7766;51.534;6.722;2022-09-27T03:35:10;7.70;;;3.63;;
15331;SDS011;7766;51.534;6.722;2022-09-27T03:36:11;6.90;;;3.37;;
15331;SDS011;7766;51.534;6.722;2022-09-27T03:37:12;8.33;;;3.50;;
15331;SDS011;7766;51.534;6.722;2022-09-27T03:38:14;3.97;;;3.20;;
15331;SDS011;7766;51.534;6.722;2022-09-27T03:39:15;5.20;;;2.80;;
15331;SDS011;7766;51.534;6.722;2022-09-27T03:40:16;6.33;;;3.57;;
15331;SDS011;7766;51.534;6.722;2022-09-27T03:41:17;6.30;;;3.03;;
15331;SDS011;7766;51.534;6.722;2022-09-27T03:42:18;5.90;;;2.63;;
15331;SDS011;7766;51.534;6.722;2022-09-27T03:43:19;7.80;;;2.97;;
15331;SDS011;7766;51.534;6.722;2022-09-27T03:44:20;5.40;;;2.77;;
15331;SDS011;7766;51.534;6.722;2022-09-27T03:45:21;5.20;;;2.53;;
15331;SDS011;7766;51.534;6.722;2022-09-27T03:46:22;5.67;;;2.90;;
15331;SDS011;7766;51.534;6.722;2022-09-27T03:47:23;5.27;;;2.57;;
15331;SDS011;7766;51.534;6.722;2022-09-27T03:48:24;7.23;;;2.53;;
15331;SDS011;7766;51.534;6.722;2022-09-27T03:49:25;8.77;;;3.00;;
15331;SDS011;7766;51.534;6.722;2022-09-27T03:50:26;6.30;;;2.33;;
15331;SDS011;7766;51.534;6.722;2022-09-27T03:51:27;5.60;;;2.33;;
15331;SDS011;7766;51.534;6.722;2022-09-27T03:52:27;7.30;;;2.80;;
15331;SDS011;7766;51.534;6.722;2022-09-27T03:53:29;3.43;;;2.10;;
15331;SDS011;7766;51.534;6.722;2022-09-27T03:54:30;6.43;;;2.60;;
15331;SDS011;7766;51.534;6.722;2022-09-27T03:55:32;5.00;;;2.37;;
15331;SDS011;7766;51.534;6.722;2022-09-27T03:56:32;6.53;;;2.77;;
15331;SDS011;7766;51.534;6.722;2022-09-27T03:57:33;5.30;;;2.30;;
15331;SDS011;7766;51.534;6.722;2022-09-27T03:58:34;3.03;;;1.80;;
15331;SDS011;7766;51.534;6.722;2022-09-27T03:59:35;4.73;;;1.80;;
15331;SDS011;7766;51.534;6.722;2022-09-27T04:00:36;3.73;;;1.90;;
15331;SDS011;7766;51.534;6.722;2022-09-27T04:01:37;4.23;;;1.60;;
15331;SDS011;7766;51.534;6.722;2022-09-27T04:02:39;4.23;;;1.77;;
15331;SDS011;7766;51.534;6.722;2022-09-27T04:03:40;4.33;;;2.10;;
15331;SDS011;7766;51.534;6.722;2022-09-27T04:04:41;3.37;;;1.73;;
15331;SDS011;7766;51.534;6.722;2022-09-27T04:05:43;3.57;;;1.70;;
15331;SDS011;7766;51.534;6.722;2022-09-27T04:06:44;5.43;;;1.40;;
15331;SDS011;7766;51.534;6.722;2022-09-27T04:07:46;2.90;;;1.70;;
15331;SDS011;7766;51.534;6.722;2022-09-27T04:08:47;5.73;;;1.90;;
15331;SDS011;7766;51.534;6.722;2022-09-27T04:09:48;2.10;;;1.40;;
15331;SDS011;7766;51.534;6.722;2022-09-27T04:10:49;6.33;;;1.80;;
15331;SDS011;7766;51.534;6.722;2022-09-27T04:11:50;2.50;;;1.50;;
15331;SDS011;7766;51.534;6.722;2022-09-27T04:12:51;6.17;;;1.43;;
15331;SDS011;7766;51.534;6.722;2022-09-27T04:13:52;3.30;;;1.70;;
15331;SDS011;7766;51.534;6.722;2022-09-27T04:14:55;4.13;;;1.73;;
15331;SDS011;7766;51.534;6.722;2022-09-27T04:15:56;1.87;;;1.37;;
15331;SDS011;7766;51.534;6.722;2022-09-27T04:16:56;5.77;;;1.60;;
15331;SDS011;7766;51.534;6.722;2022-09-27T04:17:57;1.53;;;1.20;;
15331;SDS011;7766;51.534;6.722;2022-09-27T04:18:58;3.57;;;1.53;;
15331;SDS011;7766;51.534;6.722;2022-09-27T04:20:00;3.00;;;1.63;;
15331;SDS011;7766;51.534;6.722;2022-09-27T04:21:02;4.67;;;1.70;;
15331;SDS011;7766;51.534;6.722;2022-09-27T04:22:03;6.60;;;1.80;;
15331;SDS011;7766;51.534;6.722;2022-09-27T04:23:04;2.43;;;1.40;;
15331;SDS011;7766;51.534;6.722;2022-09-27T04:24:05;5.70;;;1.67;;
15331;SDS011;7766;51.534;6.722;2022-09-27T04:25:07;3.37;;;1.90;;
15331;SDS011;7766;51.534;6.722;2022-09-27T04:26:08;4.43;;;1.37;;
15331;SDS011;7766;51.534;6.722;2022-09-27T04:27:10;4.60;;;1.60;;
15331;SDS011;7766;51.534;6.722;2022-09-27T04:28:11;3.60;;;1.27;;
15331;SDS011;7766;51.534;6.722;2022-09-27T04:29:12;4.90;;;1.43;;
15331;SDS011;7766;51.534;6.722;2022-09-27T04:30:14;5.87;;;1.10;;
15331;SDS011;7766;51.534;6.722;2022-09-27T04:31:15;5.43;;;1.23;;
15331;SDS011;7766;51.534;6.722;2022-09-27T04:32:17;3.43;;;1.20;;
15331;SDS011;7766;51.534;6.722;2022-09-27T04:33:18;4.67;;;1.23;;
15331;SDS011;7766;51.534;6.722;2022-09-27T04:34:19;2.83;;;1.17;;
15331;SDS011;7766;51.534;6.722;2022-09-27T04:35:41;4.83;;;1.80;;
15331;SDS011;7766;51.534;6.722;2022-09-27T04:37:01;3.77;;;1.10;;
15331;SDS011;7766;51.534;6.722;2022-09-27T04:38:02;5.37;;;1.20;;
15331;SDS011;7766;51.534;6.722;2022-09-27T04:39:04;5.87;;;1.47;;
15331;SDS011;7766;51.534;6.722;2022-09-27T04:40:07;3.83;;;1.67;;
15331;SDS011;7766;51.534;6.722;2022-09-27T04:41:08;2.77;;;1.30;;
15331;SDS011;7766;51.534;6.722;2022-09-27T04:42:09;5.33;;;1.40;;
15331;SDS011;7766;51.534;6.722;2022-09-27T04:43:10;6.03;;;1.00;;
15331;SDS011;7766;51.534;6.722;2022-09-27T04:44:11;4.83;;;1.40;;
15331;SDS011;7766;51.534;6.722;2022-09-27T04:45:12;4.77;;;1.30;;
15331;SDS011;7766;51.534;6.722;2022-09-27T04:46:13;1.37;;;0.70;;
15331;SDS011;7766;51.534;6.722;2022-09-27T04:47:14;3.47;;;1.20;;
15331;SDS011;7766;51.534;6.722;2022-09-27T04:48:16;5.57;;;1.10;;
15331;SDS011;7766;51.534;6.722;2022-09-27T04:49:17;6.07;;;1.30;;
15331;SDS011;7766;51.534;6.722;2022-09-27T04:50:18;4.53;;;1.17;;
15331;SDS011;7766;51.534;6.722;2022-09-27T04:51:21;2.97;;;1.30;;
15331;SDS011;7766;51.534;6.722;2022-09-27T04:52:22;5.77;;;1.20;;
15331;SDS011;7766;51.534;6.722;2022-09-27T04:53:23;2.80;;;1.00;;
15331;SDS011;7766;51.534;6.722;2022-09-27T04:54:24;5.17;;;1.10;;
15331;SDS011;7766;51.534;6.722;2022-09-27T04:55:25;2.10;;;1.27;;
15331;SDS011;7766;51.534;6.722;2022-09-27T04:56:26;3.47;;;1.30;;
15331;SDS011;7766;51.534;6.722;2022-09-27T04:57:27;5.80;;;1.40;;
15331;SDS011;7766;51.534;6.722;2022-09-27T04:58:28;5.90;;;0.90;;
15331;SDS011;7766;51.534;6.722;2022-09-27T04:59:29;4.03;;;1.10;;
15331;SDS011;7766;51.534;6.722;2022-09-27T05:00:30;4.00;;;1.13;;
15331;SDS011;7766;51.534;6.722;2022-09-27T05:01:31;5.70;;;1.23;;
15331;SDS011;7766;51.534;6.722;2022-09-27T05:02:32;4.83;;;1.33;;
15331;SDS011;7766;51.534;6.722;2022-09-27T05:03:33;1.93;;;0.97;;
15331;SDS011;7766;51.534;6.722;2022-09-27T05:04:34;6.27;;;1.17;;
15331;SDS011;7766;51.534;6.722;2022-09-27T05:05:35;4.20;;;1.07;;
15331;SDS011;7766;51.534;6.722;2022-09-27T05:06:36;4.33;;;0.93;;
15331;SDS011;7766;51.534;6.722;2022-09-27T05:07:37;4.10;;;1.03;;
15331;SDS011;7766;51.534;6.722;2022-09-27T05:08:38;4.33;;;1.00;;
15331;SDS011;7766;51.534;6.722;2022-09-27T05:09:39;3.53;;;1.23;;
15331;SDS011;7766;51.534;6.722;2022-09-27T05:10:40;5.53;;;1.83;;
15331;SDS011;7766;51.534;6.722;2022-09-27T05:11:41;2.83;;;1.10;;
15331;SDS011;7766;51.534;6.722;2022-09-27T05:12:42;4.77;;;1.10;;
15331;SDS011;7766;51.534;6.722;2022-09-27T05:13:44;2.53;;;1.30;;
15331;SDS011;7766;51.534;6.722;2022-09-27T05:14:45;4.27;;;1.00;;
15331;SDS011;7766;51.534;6.722;2022-09-27T05:15:46;3.60;;;1.10;;
15331;SDS011;7766;51.534;6.722;2022-09-27T05:16:47;4.30;;;1.30;;
15331;SDS011;7766;51.534;6.722;2022-09-27T05:17:51;2.83;;;1.27;;
15331;SDS011;7766;51.534;6.722;2022-09-27T05:18:52;4.53;;;1.10;;
15331;SDS011;7766;51.534;6.722;2022-09-27T05:19:53;3.33;;;1.00;;
15331;SDS011;7766;51.534;6.722;2022-09-27T05:20:54;4.20;;;1.20;;
15331;SDS011;7766;51.534;6.722;2022-09-27T05:21:57;4.07;;;1.10;;
15331;SDS011;7766;51.534;6.722;2022-09-27T05:22:59;5.67;;;1.00;;
15331;SDS011;7766;51.534;6.722;2022-09-27T05:24:00;2.03;;;1.07;;
15331;SDS011;7766;51.534;6.722;2022-09-27T05:25:01;2.77;;;0.87;;
15331;SDS011;7766;51.534;6.722;2022-09-27T05:26:06;2.40;;;0.93;;
15331;SDS011;7766;51.534;6.722;2022-09-27T05:27:07;2.87;;;1.27;;
15331;SDS011;7766;51.534;6.722;2022-09-27T05:28:11;4.97;;;0.97;;
15331;SDS011;7766;51.534;6.722;2022-09-27T05:29:12;2.80;;;0.93;;
15331;SDS011;7766;51.534;6.722;2022-09-27T05:30:14;3.67;;;1.10;;
15331;SDS011;7766;51.534;6.722;2022-09-27T05:31:14;4.87;;;1.23;;
15331;SDS011;7766;51.534;6.722;2022-09-27T05:32:15;6.23;;;0.97;;
15331;SDS011;7766;51.534;6.722;2022-09-27T05:33:16;5.47;;;1.20;;
15331;SDS011;7766;51.534;6.722;2022-09-27T05:34:18;2.73;;;0.87;;
15331;SDS011;7766;51.534;6.722;2022-09-27T05:35:19;5.73;;;1.17;;
15331;SDS011;7766;51.534;6.722;2022-09-27T05:36:21;2.33;;;1.00;;
15331;SDS011;7766;51.534;6.722;2022-09-27T05:37:22;3.10;;;1.10;;
15331;SDS011;7766;51.534;6.722;2022-09-27T05:38:23;5.50;;;1.10;;
15331;SDS011;7766;51.534;6.722;2022-09-27T05:39:25;4.03;;;1.30;;
15331;SDS011;7766;51.534;6.722;2022-09-27T05:40:26;2.50;;;1.10;;
15331;SDS011;7766;51.534;6.722;2022-09-27T05:41:28;4.53;;;1.10;;
15331;SDS011;7766;51.534;6.722;2022-09-27T05:42:31;4.17;;;1.50;;
15331;SDS011;7766;51.534;6.722;2022-09-27T05:43:34;3.57;;;1.07;;
15331;SDS011;7766;51.534;6.722;2022-09-27T05:44:35;5.30;;;1.27;;
15331;SDS011;7766;51.534;6.722;2022-09-27T05:45:38;2.70;;;1.13;;
15331;SDS011;7766;51.534;6.722;2022-09-27T05:46:38;6.43;;;1.20;;
15331;SDS011;7766;51.534;6.722;2022-09-27T05:47:39;4.37;;;1.13;;
15331;SDS011;7766;51.534;6.722;2022-09-27T05:48:40;3.70;;;1.40;;
15331;SDS011;7766;51.534;6.722;2022-09-27T05:49:41;6.00;;;1.57;;
15331;SDS011;7766;51.534;6.722;2022-09-27T05:50:42;2.47;;;1.20;;
15331;SDS011;7766;51.534;6.722;2022-09-27T05:51:44;5.20;;;1.20;;
15331;SDS011;7766;51.534;6.722;2022-09-27T05:52:45;3.27;;;1.13;;
15331;SDS011;7766;51.534;6.722;2022-09-27T05:53:46;2.10;;;1.10;;
15331;SDS011;7766;51.534;6.722;2022-09-27T05:54:47;3.33;;;1.27;;
15331;SDS011;7766;51.534;6.722;2022-09-27T05:55:48;4.90;;;1.40;;
15331;SDS011;7766;51.534;6.722;2022-09-27T05:56:52;3.07;;;1.10;;
15331;SDS011;7766;51.534;6.722;2022-09-27T05:57:58;3.57;;;1.00;;
15331;SDS011;7766;51.534;6.722;2022-09-27T05:59:03;3.07;;;1.00;;
15331;SDS011;7766;51.534;6.722;2022-09-27T06:00:05;5.23;;;1.07;;
15331;SDS011;7766;51.534;6.722;2022-09-27T06:01:06;4.83;;;1.17;;
15331;SDS011;7766;51.534;6.722;2022-09-27T06:02:11;3.87;;;1.20;;
15331;SDS011;7766;51.534;6.722;2022-09-27T06:03:12;4.77;;;1.30;;
15331;SDS011;7766;51.534;6.722;2022-09-27T06:04:13;3.13;;;1.33;;
15331;SDS011;7766;51.534;6.722;2022-09-27T06:05:14;6.20;;;1.50;;
15331;SDS011;7766;51.534;6.722;2022-09-27T06:06:15;2.63;;;0.83;;
15331;SDS011;7766;51.534;6.722;2022-09-27T06:07:16;3.47;;;1.20;;
15331;SDS011;7766;51.534;6.722;2022-09-27T06:08:17;2.17;;;1.27;;
15331;SDS011;7766;51.534;6.722;2022-09-27T06:09:21;2.13;;;1.00;;
15331;SDS011;7766;51.534;6.722;2022-09-27T06:10:22;4.30;;;1.17;;
15331;SDS011;7766;51.534;6.722;2022-09-27T06:11:23;3.67;;;1.10;;
15331;SDS011;7766;51.534;6.722;2022-09-27T06:12:26;2.50;;;0.93;;
15331;SDS011;7766;51.534;6.722;2022-09-27T06:13:27;2.70;;;0.80;;
15331;SDS011;7766;51.534;6.722;2022-09-27T06:14:28;4.93;;;0.90;;
15331;SDS011;7766;51.534;6.722;2022-09-27T06:15:30;6.17;;;1.40;;
15331;SDS011;7766;51.534;6.722;2022-09-27T06:16:32;4.00;;;1.10;;
15331;SDS011;7766;51.534;6.722;2022-09-27T06:17:33;3.10;;;1.20;;
15331;SDS011;7766;51.534;6.722;2022-09-27T06:18:34;3.93;;;1.03;;
15331;SDS011;7766;51.534;6.722;2022-09-27T06:19:36;3.13;;;1.07;;
15331;SDS011;7766;51.534;6.722;2022-09-27T06:20:37;1.13;;;0.80;;
15331;SDS011;7766;51.534;6.722;2022-09-27T06:21:39;2.80;;;1.00;;
15331;SDS011;7766;51.534;6.722;2022-09-27T06:22:40;4.43;;;1.00;;
15331;SDS011;7766;51.534;6.722;2022-09-27T06:23:41;4.10;;;0.90;;
15331;SDS011;7766;51.534;6.722;2022-09-27T06:24:42;3.37;;;1.20;;
15331;SDS011;7766;51.534;6.722;2022-09-27T06:25:43;1.87;;;1.27;;
15331;SDS011;7766;51.534;6.722;2022-09-27T06:26:45;3.07;;;1.20;;
15331;SDS011;7766;51.534;6.722;2022-09-27T06:27:46;4.67;;;1.30;;
15331;SDS011;7766;51.534;6.722;2022-09-27T06:28:47;3.43;;;1.13;;
15331;SDS011;7766;51.534;6.722;2022-09-27T06:29:49;3.10;;;0.90;;
15331;SDS011;7766;51.534;6.722;2022-09-27T06:30:50;3.93;;;1.10;;
15331;SDS011;7766;51.534;6.722;2022-09-27T06:31:51;3.17;;;0.90;;
15331;SDS011;7766;51.534;6.722;2022-09-27T06:32:56;4.17;;;0.83;;
15331;SDS011;7766;51.534;6.722;2022-09-27T06:33:59;4.67;;;1.07;;
15331;SDS011;7766;51.534;6.722;2022-09-27T06:35:00;2.90;;;1.07;;
15331;SDS011;7766;51.534;6.722;2022-09-27T06:36:04;1.87;;;1.10;;
15331;SDS011;7766;51.534;6.722;2022-09-27T06:37:06;2.33;;;0.77;;
15331;SDS011;7766;51.534;6.722;2022-09-27T06:38:08;3.00;;;0.97;;
15331;SDS011;7766;51.534;6.722;2022-09-27T06:39:11;2.20;;;0.73;;
15331;SDS011;7766;51.534;6.722;2022-09-27T06:40:12;3.37;;;0.93;;
15331;SDS011;7766;51.534;6.722;2022-09-27T06:41:13;5.63;;;0.90;;
15331;SDS011;7766;51.534;6.722;2022-09-27T06:42:14;5.83;;;1.10;;
15331;SDS011;7766;51.534;6.722;2022-09-27T06:43:18;2.03;;;0.90;;
15331;SDS011;7766;51.534;6.722;2022-09-27T06:44:20;3.43;;;0.87;;
15331;SDS011;7766;51.534;6.722;2022-09-27T06:45:22;2.90;;;1.07;;
15331;SDS011;7766;51.534;6.722;2022-09-27T06:46:23;3.70;;;0.87;;
15331;SDS011;7766;51.534;6.722;2022-09-27T06:47:24;2.27;;;1.00;;
15331;SDS011;7766;51.534;6.722;2022-09-27T06:48:26;1.83;;;0.97;;
15331;SDS011;7766;51.534;6.722;2022-09-27T06:49:28;2.37;;;1.20;;
15331;SDS011;7766;51.534;6.722;2022-09-27T06:50:31;4.93;;;1.10;;
15331;SDS011;7766;51.534;6.722;2022-09-27T06:51:35;1.90;;;0.73;;
15331;SDS011;7766;51.534;6.722;2022-09-27T06:52:36;3.83;;;1.10;;
15331;SDS011;7766;51.534;6.722;2022-09-27T06:53:45;4.03;;;1.27;;
15331;SDS011;7766;51.534;6.722;2022-09-27T06:54:45;1.57;;;0.90;;
15331;SDS011;7766;51.534;6.722;2022-09-27T06:55:46;2.60;;;1.10;;
15331;SDS011;7766;51.534;6.722;2022-09-27T06:56:47;3.23;;;1.07;;
15331;SDS011;7766;51.534;6.722;2022-09-27T06:57:52;1.90;;;1.10;;
15331;SDS011;7766;51.534;6.722;2022-09-27T06:59:12;2.67;;;1.00;;
15331;SDS011;7766;51.534;6.722;2022-09-27T07:00:32;3.87;;;1.27;;
15331;SDS011;7766;51.534;6.722;2022-09-27T07:01:33;4.50;;;1.00;;
15331;SDS011;7766;51.534;6.722;2022-09-27T07:02:34;3.93;;;1.63;;
15331;SDS011;7766;51.534;6.722;2022-09-27T07:03:35;3.50;;;1.30;;
15331;SDS011;7766;51.534;6.722;2022-09-27T07:04:40;3.20;;;0.90;;
15331;SDS011;7766;51.534;6.722;2022-09-27T07:05:41;2.10;;;1.00;;
15331;SDS011;7766;51.534;6.722;2022-09-27T07:06:54;2.50;;;0.80;;
15331;SDS011;7766;51.534;6.722;2022-09-27T07:07:56;5.20;;;1.33;;
15331;SDS011;7766;51.534;6.722;2022-09-27T07:08:58;5.03;;;1.10;;
15331;SDS011;7766;51.534;6.722;2022-09-27T07:09:59;2.77;;;0.90;;
15331;SDS011;7766;51.534;6.722;2022-09-27T07:11:01;2.03;;;0.80;;